Time;durP1;ratioP1;P1;durP2;ratioP2;P2;SDS_P1;SDS_P2;PMS_P1;PMS_P2;Temp;Humidity;BMP_temperature;BMP_pressure;BME280_temperature;BME280_humidity;BME280_pressure;Samples;Min_cycle;Max_cycle;Signal;HPM_P1;HPM_P2
2022/12/15 03:35:27;;;;;;;25.83;13.73;;;0.80;65.50;;;;;;4886588;29;20247;-96
2022/12/15 03:38:07;;;;;;;22.40;13.07;;;0.80;65.40;;;;;;4882528;29;20240;-96
2022/12/15 03:40:44;;;;;;;24.27;12.60;;;0.80;65.80;;;;;;4900930;29;20220;-95
2022/12/15 03:43:32;;;;;;;24.13;13.53;;;0.70;65.30;;;;;;4945538;29;20210;-95
2022/12/15 03:46:03;;;;;;;21.83;12.80;;;0.70;65.20;;;;;;4930207;29;20236;-95
2022/12/15 03:48:38;;;;;;;27.20;14.00;;;0.60;65.10;;;;;;4934821;29;20219;-95
2022/12/15 03:51:17;;;;;;;21.67;13.93;;;0.70;65.30;;;;;;4954858;29;20238;-96
2022/12/15 03:54:00;;;;;;;23.27;13.03;;;0.60;65.50;;;;;;4939355;29;20215;-95
2022/12/15 03:56:36;;;;;;;19.03;12.13;;;0.60;65.60;;;;;;4941925;29;20219;-96
2022/12/15 03:59:09;;;;;;;21.20;12.87;;;0.60;65.80;;;;;;4930291;29;20199;-96
2022/12/15 04:01:49;;;;;;;21.13;12.87;;;0.60;65.90;;;;;;4946045;29;20209;-95
2022/12/15 04:04:41;;;;;;;23.23;12.97;;;0.60;66.00;;;;;;4943863;29;20213;-95
2022/12/15 04:07:21;;;;;;;22.53;12.80;;;0.60;66.50;;;;;;4934449;29;20225;-95
2022/12/15 04:10:00;;;;;;;23.87;13.47;;;0.60;65.80;;;;;;4949009;29;20238;-95
2022/12/15 04:12:33;;;;;;;28.57;12.57;;;0.50;65.80;;;;;;4947440;29;20301;-96
2022/12/15 04:15:02;;;;;;;26.40;13.37;;;0.50;65.90;;;;;;4946325;29;20216;-94
2022/12/15 04:17:40;;;;;;;23.87;13.33;;;0.60;65.90;;;;;;4947558;29;20599;-95
2022/12/15 04:20:19;;;;;;;27.27;13.97;;;0.60;66.10;;;;;;4946313;29;20236;-95
2022/12/15 04:23:22;;;;;;;19.90;12.50;;;0.50;65.80;;;;;;4945641;29;20232;-95
2022/12/15 05:33:54;;;;;;;33.03;14.83;;;0.80;66.70;;;;;;4931238;29;20261;-94
2022/12/15 05:36:24;;;;;;;27.30;13.80;;;0.80;66.70;;;;;;4931032;29;20202;-93
2022/12/15 05:38:52;;;;;;;26.63;13.10;;;0.70;66.60;;;;;;4928145;29;20213;-94
2022/12/15 05:41:28;;;;;;;24.23;12.93;;;0.70;66.40;;;;;;4935746;29;20222;-93
2022/12/15 05:43:56;;;;;;;29.90;14.97;;;0.70;66.60;;;;;;4932513;29;20217;-93
2022/12/15 05:46:24;;;;;;;29.33;14.47;;;0.70;66.50;;;;;;4928578;29;20202;-92
2022/12/15 05:48:52;;;;;;;28.00;14.73;;;0.70;66.30;;;;;;4931761;29;20206;-93
2022/12/15 05:51:22;;;;;;;25.57;13.70;;;0.70;66.40;;;;;;4928659;29;20240;-93
2022/12/15 05:53:49;;;;;;;27.63;13.83;;;0.70;66.40;;;;;;4939144;29;20214;-93
2022/12/15 05:56:18;;;;;;;30.57;15.60;;;0.60;66.20;;;;;;4931126;29;20620;-93
2022/12/15 05:58:47;;;;;;;28.17;14.33;;;0.60;66.30;;;;;;4927204;29;20212;-93
2022/12/15 06:01:17;;;;;;;26.77;13.90;;;0.60;66.30;;;;;;4930082;29;20673;-94
2022/12/15 06:03:52;;;;;;;27.50;13.97;;;0.60;66.20;;;;;;4936563;29;20202;-94
2022/12/15 06:06:23;;;;;;;28.47;14.47;;;0.60;66.10;;;;;;4927276;29;20267;-94
2022/12/15 06:08:53;;;;;;;29.97;15.07;;;0.50;66.10;;;;;;4938977;29;20775;-93
2022/12/15 06:11:46;;;;;;;;;;;;;;;;;;;;;
2022/12/15 06:14:13;;;;;;;25.00;12.07;;;0.50;66.30;;;;;;4932159;29;20216;-94
2022/12/15 06:16:43;;;;;;;32.83;15.10;;;0.50;66.30;;;;;;4938262;29;20223;-93
2022/12/15 06:19:11;;;;;;;26.50;13.63;;;0.50;66.40;;;;;;4937915;29;20234;-93
2022/12/15 06:21:41;;;;;;;24.03;13.23;;;0.50;66.10;;;;;;4929837;29;20228;-93
2022/12/15 06:24:10;;;;;;;23.47;12.43;;;0.50;66.20;;;;;;4943520;29;20292;-93
2022/12/15 06:26:38;;;;;;;29.73;14.67;;;0.40;66.30;;;;;;4950140;29;20230;-94
2022/12/15 06:29:11;;;;;;;25.43;14.13;;;0.40;66.30;;;;;;4937916;29;20224;-92
2022/12/15 06:31:42;;;;;;;24.33;13.90;;;0.40;66.10;;;;;;4940521;29;20244;-93
2022/12/15 06:34:27;;;;;;;25.57;13.27;;;0.40;66.20;;;;;;4928197;29;20293;-92
2022/12/15 06:37:00;;;;;;;25.13;13.30;;;0.40;66.20;;;;;;4929782;29;20199;-92
2022/12/15 06:39:30;;;;;;;28.87;14.50;;;0.40;66.50;;;;;;4926726;29;20212;-93
2022/12/15 06:42:16;;;;;;;23.57;13.27;;;0.40;66.20;;;;;;4934433;29;20205;-93
2022/12/15 06:44:48;;;;;;;30.43;14.20;;;0.40;66.50;;;;;;4933859;29;20361;-93
2022/12/15 06:47:20;;;;;;;28.07;14.23;;;0.40;66.30;;;;;;4922513;29;20401;-93
2022/12/15 06:49:48;;;;;;;27.90;13.97;;;0.40;66.30;;;;;;4934417;29;20287;-93
2022/12/15 06:52:23;;;;;;;30.43;15.20;;;0.30;66.20;;;;;;4941029;29;20242;-93
2022/12/15 06:54:54;;;;;;;30.50;15.50;;;0.30;66.30;;;;;;4934955;29;20213;-92
2022/12/15 06:57:31;;;;;;;26.87;13.67;;;0.30;66.40;;;;;;4937727;29;20262;-92
2022/12/15 06:59:59;;;;;;;28.47;14.10;;;0.30;66.20;;;;;;4933510;29;20343;-92
2022/12/15 07:02:31;;;;;;;30.80;14.73;;;0.30;66.20;;;;;;4932691;29;20684;-93
2022/12/15 07:05:24;;;;;;;26.00;13.87;;;0.30;66.00;;;;;;4932065;29;20261;-93
2022/12/15 07:07:56;;;;;;;25.93;13.60;;;0.30;66.00;;;;;;4924598;29;20267;-93
2022/12/15 07:10:38;;;;;;;29.53;15.03;;;0.30;66.20;;;;;;4932277;29;20574;-93
2022/12/15 07:13:07;;;;;;;34.47;16.33;;;0.30;66.20;;;;;;4917305;29;20211;-93
2022/12/15 07:15:34;;;;;;;27.53;14.10;;;0.30;66.10;;;;;;4925553;29;20211;-93
2022/12/15 07:18:03;;;;;;;27.33;14.97;;;0.20;66.00;;;;;;4924024;29;20247;-93
2022/12/15 07:20:30;;;;;;;27.97;14.77;;;0.20;66.30;;;;;;4930434;29;20245;-92
2022/12/15 07:23:08;;;;;;;26.60;15.03;;;0.20;66.20;;;;;;4936177;29;20254;-93
2022/12/15 07:25:39;;;;;;;28.17;14.83;;;0.20;66.30;;;;;;4935880;29;20693;-92
2022/12/15 07:28:11;;;;;;;32.00;16.77;;;0.10;66.30;;;;;;4938078;29;20260;-92
2022/12/15 07:30:38;;;;;;;26.67;15.20;;;0.20;66.50;;;;;;4936917;29;20338;-94
2022/12/15 07:33:09;;;;;;;26.43;15.30;;;0.20;66.40;;;;;;4937869;29;20205;-92
2022/12/15 07:35:39;;;;;;;26.90;15.50;;;0.10;66.50;;;;;;4937889;29;20996;-92
2022/12/15 07:38:08;;;;;;;26.60;14.67;;;0.10;66.20;;;;;;4922266;29;20266;-92
2022/12/15 07:40:35;;;;;;;30.67;15.80;;;0.20;66.40;;;;;;4928964;29;20208;-92
2022/12/15 07:43:06;;;;;;;26.50;14.47;;;0.20;66.40;;;;;;4935379;29;20205;-92
2022/12/15 07:45:34;;;;;;;23.60;13.47;;;0.10;66.30;;;;;;4940200;29;20287;-93
2022/12/15 07:48:08;;;;;;;32.27;14.93;;;0.20;66.20;;;;;;4926022;29;20202;-93
2022/12/15 07:50:41;;;;;;;22.07;12.80;;;0.10;66.30;;;;;;4933561;29;20286;-93
2022/12/15 07:53:27;;;;;;;27.20;13.40;;;0.10;66.10;;;;;;4925120;29;20680;-91
2022/12/15 07:55:57;;;;;;;25.87;13.27;;;0.10;66.50;;;;;;4934436;29;20207;-90
2022/12/15 07:58:25;;;;;;;26.80;14.83;;;0.10;66.60;;;;;;4944176;29;20690;-93
2022/12/15 08:00:52;;;;;;;31.13;15.20;;;0.10;66.40;;;;;;4940534;29;20221;-93
2022/12/15 08:03:24;;;;;;;26.33;14.70;;;0.10;66.50;;;;;;4928328;29;20220;-92
2022/12/15 08:05:59;;;;;;;28.30;14.53;;;0.10;66.80;;;;;;4933750;29;20208;-93
2022/12/15 08:08:27;;;;;;;29.63;15.20;;;0.10;66.50;;;;;;4943483;29;20965;-91
2022/12/15 08:10:56;;;;;;;26.93;14.57;;;0.10;66.50;;;;;;4935236;29;20261;-92
2022/12/15 08:13:29;;;;;;;39.43;16.73;;;0.20;66.60;;;;;;4933035;29;20230;-92
2022/12/15 08:16:05;;;;;;;23.97;13.17;;;0.10;66.60;;;;;;4927047;29;20226;-92
2022/12/15 08:18:32;;;;;;;27.70;14.87;;;0.10;67.10;;;;;;4923730;29;20254;-92
2022/12/15 08:21:02;;;;;;;26.40;15.00;;;0.10;66.90;;;;;;4936559;29;20244;-92
2022/12/15 08:23:39;;;;;;;33.10;15.53;;;0.10;66.80;;;;;;4931780;29;20676;-93
2022/12/15 08:26:11;;;;;;;24.90;14.30;;;0.10;67.20;;;;;;4938322;29;20282;-92
2022/12/15 08:28:42;;;;;;;31.10;16.40;;;0.10;67.70;;;;;;4942592;29;20268;-92
2022/12/15 08:31:17;;;;;;;35.03;16.90;;;0.10;67.10;;;;;;4937002;29;20221;-92
2022/12/15 08:33:46;;;;;;;30.47;16.07;;;0.10;67.20;;;;;;4937966;29;20228;-93
2022/12/15 08:36:16;;;;;;;27.47;14.80;;;0.10;67.90;;;;;;4939802;29;20313;-93
2022/12/15 08:38:57;;;;;;;25.60;15.37;;;0.10;67.20;;;;;;4932126;29;20229;-93
2022/12/15 08:41:48;;;;;;;25.67;15.13;;;0.10;67.00;;;;;;4929203;29;20210;-95
2022/12/15 08:47:31;;;;;;;30.37;14.70;;;0.10;67.60;;;;;;4951881;29;20239;-93
2022/12/15 08:50:13;;;;;;;29.03;14.90;;;0.10;67.20;;;;;;4935640;29;20203;-93
2022/12/15 08:52:43;;;;;;;25.40;15.20;;;0.20;67.40;;;;;;4923567;29;20213;-91
2022/12/15 08:55:14;;;;;;;32.97;16.97;;;0.20;67.70;;;;;;4927017;29;20279;-91
2022/12/15 08:57:43;;;;;;;33.53;16.70;;;0.20;67.80;;;;;;4940668;29;20213;-91
2022/12/15 09:00:18;;;;;;;28.80;15.03;;;0.20;67.60;;;;;;4941245;29;20211;-93
2022/12/15 09:02:54;;;;;;;29.87;16.23;;;0.20;67.60;;;;;;4940041;29;20653;-92
2022/12/15 09:05:22;;;;;;;28.27;15.00;;;0.20;67.90;;;;;;4922748;29;20229;-93
2022/12/15 09:07:57;;;;;;;26.23;14.67;;;0.30;67.80;;;;;;4933007;29;20205;-92
2022/12/15 09:10:40;;;;;;;;;;;;;;;;;;;;;
2022/12/15 09:13:15;;;;;;;26.40;15.23;;;0.30;68.00;;;;;;4940204;29;20273;-92
2022/12/15 09:15:46;;;;;;;25.10;14.87;;;0.30;68.50;;;;;;4932520;29;20310;-92
2022/12/15 09:18:22;;;;;;;34.23;17.50;;;0.40;68.30;;;;;;4924098;29;20249;-93
2022/12/15 09:20:52;;;;;;;28.53;15.27;;;0.40;68.50;;;;;;4936398;29;20601;-92
2022/12/15 09:23:20;;;;;;;28.43;15.73;;;0.40;68.10;;;;;;4925141;29;20578;-92
2022/12/15 09:26:06;;;;;;;23.50;14.23;;;0.40;68.30;;;;;;4941545;29;20244;-91
2022/12/15 09:28:41;;;;;;;29.13;16.03;;;0.50;68.50;;;;;;4941786;29;20274;-93
2022/12/15 09:31:35;;;;;;;24.83;15.30;;;0.50;68.60;;;;;;4933774;29;20229;-93
2022/12/15 09:34:10;;;;;;;32.53;16.63;;;0.60;69.00;;;;;;4935878;29;20208;-92
2022/12/15 09:36:43;;;;;;;27.40;15.27;;;0.60;68.80;;;;;;4932928;29;20217;-92
2022/12/15 09:39:14;;;;;;;29.03;15.47;;;0.70;69.10;;;;;;4938321;29;20207;-92
2022/12/15 09:41:53;;;;;;;24.60;15.47;;;0.70;68.90;;;;;;4941725;29;20207;-93
2022/12/15 09:44:25;;;;;;;27.23;15.50;;;0.80;69.40;;;;;;4932056;29;20616;-92
2022/12/15 09:47:14;;;;;;;27.27;15.43;;;0.80;69.30;;;;;;4941639;29;20207;-94
2022/12/15 09:49:50;;;;;;;37.50;17.27;;;0.90;69.80;;;;;;4936991;29;20218;-92
2022/12/15 09:52:21;;;;;;;35.57;18.07;;;0.90;69.90;;;;;;4950620;29;21043;-93
2022/12/15 09:54:49;;;;;;;28.03;15.93;;;1.00;70.10;;;;;;4943421;29;20602;-92
2022/12/15 09:57:28;;;;;;;30.80;16.47;;;1.10;70.90;;;;;;4954202;29;20242;-94
2022/12/15 10:00:14;;;;;;;32.20;17.83;;;1.10;70.40;;;;;;4954588;29;20671;-93
2022/12/15 10:03:10;;;;;;;29.13;16.43;;;1.20;70.50;;;;;;4951882;29;20220;-93
2022/12/15 10:05:47;;;;;;;26.60;15.70;;;1.20;70.60;;;;;;4936246;29;20299;-93
2022/12/15 10:08:17;;;;;;;29.13;16.40;;;1.30;70.60;;;;;;4934209;29;20244;-92
2022/12/15 10:10:55;;;;;;;28.20;15.27;;;1.40;70.60;;;;;;4943542;29;20670;-93
2022/12/15 10:13:41;;;;;;;35.43;17.60;;;1.40;70.70;;;;;;4927081;29;20206;-92
2022/12/15 10:16:26;;;;;;;29.40;17.73;;;1.50;70.90;;;;;;4941519;29;20640;-93
2022/12/15 10:19:03;;;;;;;29.57;17.50;;;1.60;71.10;;;;;;4939361;29;20381;-93
2022/12/15 10:21:32;;;;;;;28.50;16.67;;;1.60;71.30;;;;;;4935295;29;20357;-93
2022/12/15 10:24:10;;;;;;;23.53;15.20;;;1.70;71.50;;;;;;4931913;29;20324;-93
2022/12/15 10:26:37;;;;;;;28.87;17.27;;;1.70;71.80;;;;;;4926044;29;20286;-93
2022/12/15 10:29:18;;;;;;;31.33;17.87;;;1.80;71.60;;;;;;4930164;29;20239;-93
2022/12/15 10:31:52;;;;;;;32.20;17.73;;;1.90;72.30;;;;;;4934381;29;20258;-93
2022/12/15 10:34:26;;;;;;;30.50;16.77;;;2.00;72.30;;;;;;4945943;29;20208;-93
2022/12/15 10:36:56;;;;;;;31.07;19.07;;;2.10;72.80;;;;;;4941482;29;20212;-92
2022/12/15 10:39:37;;;;;;;28.83;18.13;;;2.10;72.70;;;;;;4932429;29;20207;-93
2022/12/15 10:42:17;;;;;;;34.83;18.87;;;2.20;73.10;;;;;;4937273;29;20229;-93
2022/12/15 10:44:47;;;;;;;33.53;18.27;;;2.30;73.60;;;;;;4950247;29;20195;-95
2022/12/15 10:47:21;;;;;;;27.07;17.53;;;2.40;73.60;;;;;;4924309;29;20702;-93
2022/12/15 10:49:51;;;;;;;29.77;17.83;;;2.50;74.00;;;;;;4918911;29;20568;-94
2022/12/15 10:52:31;;;;;;;30.77;18.57;;;2.60;74.00;;;;;;4935848;29;20310;-93
2022/12/15 10:54:58;;;;;;;29.20;18.00;;;2.70;74.40;;;;;;4931539;29;20744;-92
2022/12/15 10:57:30;;;;;;;31.27;17.63;;;2.80;74.20;;;;;;4934095;29;20839;-92
2022/12/15 11:00:28;;;;;;;27.20;18.43;;;2.90;74.60;;;;;;4929069;29;20213;-95
2022/12/15 11:02:55;;;;;;;28.10;16.57;;;3.00;75.40;;;;;;4935553;29;20730;-94
2022/12/15 11:05:32;;;;;;;28.30;18.23;;;3.10;75.00;;;;;;4925194;29;20280;-94
2022/12/15 11:08:16;;;;;;;25.10;17.07;;;3.20;75.80;;;;;;4931374;29;20296;-94
2022/12/15 11:14:24;;;;;;;31.13;18.80;;;3.40;76.90;;;;;;4903186;29;20204;-95
2022/12/15 11:16:56;;;;;;;30.30;18.70;;;3.60;77.70;;;;;;4952383;29;20216;-96
2022/12/15 11:19:39;;;;;;;29.97;19.50;;;3.70;77.70;;;;;;4960213;28;20227;-96
2022/12/15 11:22:20;;;;;;;34.33;18.53;;;3.90;78.50;;;;;;4953563;29;20272;-96
2022/12/15 11:24:53;;;;;;;35.67;20.13;;;4.10;78.90;;;;;;4952585;29;20215;-96
2022/12/15 11:27:28;;;;;;;30.87;20.10;;;4.40;79.20;;;;;;4942785;29;20213;-94
2022/12/15 11:30:04;;;;;;;28.80;18.80;;;4.60;79.70;;;;;;4935825;29;20253;-94
2022/12/15 11:32:37;;;;;;;27.97;17.80;;;4.80;80.10;;;;;;4942277;29;20250;-94
2022/12/15 11:35:06;;;;;;;33.60;20.03;;;5.10;81.00;;;;;;4925315;29;20213;-94
2022/12/15 11:37:40;;;;;;;28.93;18.97;;;5.30;81.20;;;;;;4918446;29;20211;-96
2022/12/15 11:40:35;;;;;;;30.93;19.00;;;5.60;80.50;;;;;;4930299;29;20217;-94
2022/12/15 11:43:40;;;;;;;30.93;18.77;;;5.90;80.10;;;;;;4922790;29;20206;-93
2022/12/15 11:46:24;;;;;;;30.77;20.10;;;6.20;79.70;;;;;;4894091;29;20217;-94
2022/12/15 11:49:21;;;;;;;27.07;18.60;;;6.50;79.30;;;;;;4933940;29;20208;-95
2022/12/15 11:51:56;;;;;;;36.03;19.80;;;6.80;78.70;;;;;;4925081;29;20247;-93
2022/12/15 11:54:37;;;;;;;30.23;20.67;;;7.10;77.90;;;;;;4925392;29;20205;-94
2022/12/15 11:57:23;;;;;;;22.57;17.10;;;7.30;76.70;;;;;;4931811;29;20216;-94
2022/12/15 12:00:03;;;;;;;28.17;18.43;;;7.60;76.60;;;;;;4928975;29;20218;-95
2022/12/15 12:02:49;;;;;;;31.73;18.80;;;7.80;76.00;;;;;;4929137;29;20240;-96
2022/12/15 12:05:40;;;;;;;26.93;18.03;;;8.10;75.40;;;;;;4934479;29;20211;-93
2022/12/15 12:08:30;;;;;;;25.53;17.73;;;8.30;74.90;;;;;;4943857;29;20215;-95
2022/12/15 12:11:08;;;;;;;28.33;18.53;;;8.50;74.60;;;;;;4930276;29;20200;-95
2022/12/15 12:13:45;;;;;;;24.27;17.63;;;8.70;74.20;;;;;;4922121;29;20877;-96
2022/12/15 12:16:29;;;;;;;23.37;16.90;;;8.90;73.50;;;;;;4926551;29;20299;-95
2022/12/15 12:19:02;;;;;;;23.93;18.80;;;9.10;73.60;;;;;;4917958;29;20236;-96
2022/12/15 12:21:42;;;;;;;25.60;17.87;;;9.30;72.80;;;;;;4921901;29;20228;-96
2022/12/15 12:24:17;;;;;;;25.40;18.10;;;9.40;72.20;;;;;;4935664;29;20549;-96
2022/12/15 12:26:54;;;;;;;22.47;16.87;;;9.60;72.10;;;;;;4935347;29;20243;-96
2022/12/15 12:29:30;;;;;;;28.60;17.83;;;9.80;71.30;;;;;;4935509;29;20277;-96
2022/12/15 12:32:06;;;;;;;28.60;19.63;;;9.90;70.80;;;;;;4924252;29;20229;-96
2022/12/15 12:34:51;;;;;;;28.17;18.37;;;10.10;69.40;;;;;;4918891;29;20212;-96
2022/12/15 12:37:27;;;;;;;35.70;21.93;;;10.20;68.20;;;;;;4920438;29;20215;-96
2022/12/15 12:40:02;;;;;;;32.07;19.47;;;10.30;68.30;;;;;;4923325;29;20212;-96
2022/12/15 12:42:37;;;;;;;27.33;20.00;;;10.40;68.50;;;;;;4935470;29;20299;-96
2022/12/15 12:45:07;;;;;;;27.27;20.30;;;10.50;67.70;;;;;;4927113;29;20208;-95
2022/12/15 12:50:22;;;;;;;27.33;18.93;;;10.70;68.10;;;;;;4927365;29;20212;-96
2022/12/15 12:53:03;;;;;;;32.37;23.13;;;10.80;67.80;;;;;;4931916;29;20237;-96
2022/12/15 12:55:40;;;;;;;32.10;22.37;;;10.90;68.70;;;;;;4937743;29;20211;-96
2022/12/15 12:58:34;;;;;;;29.83;20.57;;;11.00;67.80;;;;;;4935723;29;20566;-96
2022/12/15 13:01:19;;;;;;;29.33;21.53;;;11.10;67.40;;;;;;4935336;29;20224;-96
2022/12/15 13:04:29;;;;;;;34.17;22.63;;;11.30;67.70;;;;;;4954703;29;20224;-96
2022/12/15 13:07:06;;;;;;;24.50;19.37;;;11.40;67.70;;;;;;4941796;29;20201;-96
2022/12/15 13:12:54;;;;;;;30.90;20.17;;;11.60;66.50;;;;;;4932841;29;20250;-96
2022/12/15 13:18:25;;;;;;;40.43;23.70;;;11.70;65.10;;;;;;4951444;29;20222;-96
2022/12/15 13:21:10;;;;;;;;;;;;;;;;;;;;;
2022/12/15 13:26:50;;;;;;;29.33;19.23;;;11.80;64.20;;;;;;4927356;29;20209;-95
2022/12/15 13:29:22;;;;;;;36.67;23.00;;;11.70;64.10;;;;;;4938784;29;20573;-95
2022/12/15 13:31:55;;;;;;;34.60;21.27;;;11.60;64.10;;;;;;4938963;29;20272;-95
2022/12/15 13:34:38;;;;;;;37.83;22.60;;;11.60;64.00;;;;;;4929695;29;20570;-95
2022/12/15 13:37:56;;;;;;;29.87;22.20;;;11.50;63.20;;;;;;4925916;29;20205;-96
2022/12/15 13:40:32;;;;;;;30.60;20.93;;;11.40;63.00;;;;;;4924117;29;20217;-95
2022/12/15 13:43:36;;;;;;;35.33;21.27;;;11.20;63.60;;;;;;4928434;29;20215;-94
2022/12/15 13:46:19;;;;;;;29.63;20.77;;;11.10;62.90;;;;;;4936239;29;20280;-95
2022/12/15 13:49:05;;;;;;;36.30;22.23;;;11.00;63.60;;;;;;4940083;29;20208;-94
2022/12/15 13:51:40;;;;;;;31.10;20.73;;;10.90;63.30;;;;;;4929242;29;20208;-95
2022/12/15 13:54:46;;;;;;;36.33;22.50;;;10.70;63.10;;;;;;4938757;29;20204;-96
2022/12/15 13:57:21;;;;;;;33.03;22.43;;;10.60;63.10;;;;;;4930416;29;20299;-94
2022/12/15 14:00:05;;;;;;;35.37;23.43;;;10.50;63.30;;;;;;4924140;29;20221;-95
2022/12/15 14:02:34;;;;;;;29.27;20.47;;;10.40;63.10;;;;;;4922403;29;20580;-95
2022/12/15 14:05:13;;;;;;;33.07;23.73;;;10.20;63.20;;;;;;4935435;29;20213;-95
2022/12/15 14:07:47;;;;;;;28.80;21.10;;;10.10;63.10;;;;;;4939925;29;20203;-96
2022/12/15 14:10:29;;;;;;;35.37;23.03;;;10.10;63.40;;;;;;4930283;29;20240;-94
2022/12/15 14:13:11;;;;;;;35.70;23.13;;;9.90;64.60;;;;;;4930187;29;20230;-95
2022/12/15 14:15:45;;;;;;;32.50;20.93;;;9.80;64.80;;;;;;4937340;29;20263;-95
2022/12/15 14:18:29;;;;;;;63.20;46.63;;;9.70;65.50;;;;;;4937453;29;20238;-95
2022/12/15 14:21:02;;;;;;;30.23;22.63;;;9.60;64.70;;;;;;4938923;29;20214;-95
2022/12/15 14:23:57;;;;;;;45.00;30.27;;;9.50;64.90;;;;;;4942561;29;20244;-96
2022/12/15 14:26:29;;;;;;;43.33;31.03;;;9.40;64.90;;;;;;4953244;29;20230;-96
2022/12/15 14:29:02;;;;;;;39.80;26.40;;;9.30;65.10;;;;;;4939387;29;20239;-95
2022/12/15 14:31:32;;;;;;;34.83;24.27;;;9.20;65.20;;;;;;4937524;29;20219;-95
2022/12/15 14:34:03;;;;;;;38.23;23.53;;;9.10;65.30;;;;;;4936023;29;20929;-95
2022/12/15 14:36:31;;;;;;;35.40;22.90;;;9.00;65.40;;;;;;4933473;29;20212;-96
2022/12/15 14:39:00;;;;;;;39.03;24.10;;;8.90;65.40;;;;;;4936072;29;20290;-96
2022/12/15 14:41:37;;;;;;;35.20;23.33;;;8.90;65.50;;;;;;4936253;29;20208;-94
2022/12/15 14:44:08;;;;;;;29.23;21.43;;;8.80;65.40;;;;;;4935235;29;20214;-95
2022/12/15 14:46:38;;;;;;;33.30;21.13;;;8.70;65.50;;;;;;4935740;29;20568;-95
2022/12/15 14:49:09;;;;;;;27.93;20.03;;;8.60;65.50;;;;;;4936635;29;20215;-96
2022/12/15 14:51:43;;;;;;;32.97;20.20;;;8.60;65.70;;;;;;4941126;29;20211;-94
2022/12/15 14:54:31;;;;;;;36.30;21.30;;;8.50;65.70;;;;;;4934770;29;20292;-94
2022/12/15 14:57:01;;;;;;;24.90;17.70;;;8.40;65.50;;;;;;4936263;29;20234;-95
2022/12/15 14:59:33;;;;;;;29.57;18.67;;;8.30;65.70;;;;;;4951820;29;20213;-95
2022/12/15 15:02:28;;;;;;;36.17;23.63;;;8.20;65.60;;;;;;4948097;29;20278;-96
2022/12/15 15:05:02;;;;;;;25.73;16.20;;;8.20;65.60;;;;;;4931468;29;20217;-95
2022/12/15 15:07:34;;;;;;;30.77;16.53;;;8.10;65.40;;;;;;4930069;29;20646;-95
2022/12/15 15:10:03;;;;;;;26.07;16.03;;;8.00;65.70;;;;;;4941213;29;20218;-95
2022/12/15 15:12:44;;;;;;;23.30;15.37;;;7.90;65.90;;;;;;4937979;29;20584;-95
2022/12/15 15:15:17;;;;;;;26.83;15.60;;;7.80;65.80;;;;;;4937721;29;20208;-96
2022/12/15 15:17:52;;;;;;;24.90;17.30;;;7.80;66.10;;;;;;4930687;29;20242;-95
2022/12/15 15:20:25;;;;;;;25.20;15.00;;;7.70;66.20;;;;;;4926601;29;20202;-94
2022/12/15 15:23:13;;;;;;;22.60;13.70;;;7.60;66.20;;;;;;4929467;29;20221;-95
2022/12/15 15:25:49;;;;;;;18.93;11.73;;;7.60;66.40;;;;;;4933610;29;20233;-96
2022/12/15 15:28:23;;;;;;;24.33;12.63;;;7.50;66.30;;;;;;4938115;29;20215;-96
2022/12/15 15:30:53;;;;;;;21.87;13.17;;;7.40;66.30;;;;;;4935071;29;20619;-95
2022/12/15 15:33:23;;;;;;;21.97;12.57;;;7.40;66.40;;;;;;4939161;29;20242;-94
2022/12/15 15:35:53;;;;;;;26.60;13.73;;;7.30;66.50;;;;;;4948750;29;20661;-94
2022/12/15 15:38:29;;;;;;;27.97;14.23;;;7.30;66.50;;;;;;4950634;29;20216;-94
2022/12/15 15:40:59;;;;;;;22.57;11.53;;;7.20;66.70;;;;;;4919308;29;20208;-96
2022/12/15 15:43:28;;;;;;;23.90;13.17;;;7.10;66.90;;;;;;4933293;29;20215;-95
2022/12/15 15:46:04;;;;;;;19.50;11.73;;;7.10;67.00;;;;;;4931171;29;20306;-95
2022/12/15 15:48:38;;;;;;;197.90;105.77;;;7.00;67.00;;;;;;4933776;29;20720;-95
2022/12/15 15:51:07;;;;;;;45.10;28.27;;;7.00;67.10;;;;;;4920146;29;20241;-96
2022/12/15 15:53:56;;;;;;;21.00;15.00;;;6.90;66.60;;;;;;4924983;29;20224;-96
2022/12/15 15:56:26;;;;;;;25.27;14.40;;;6.80;66.90;;;;;;4939406;29;20237;-96
2022/12/15 15:58:57;;;;;;;20.57;12.13;;;6.80;66.50;;;;;;4927046;29;20222;-95
2022/12/15 16:01:29;;;;;;;20.40;11.57;;;6.70;66.40;;;;;;4934094;29;20904;-96
2022/12/15 16:04:05;;;;;;;22.53;12.13;;;6.70;66.70;;;;;;4938692;29;20221;-95
2022/12/15 16:06:34;;;;;;;20.93;12.27;;;6.60;66.50;;;;;;4936345;29;20217;-95
2022/12/15 16:09:08;;;;;;;29.20;13.03;;;6.60;66.70;;;;;;4921215;29;20212;-95
2022/12/15 16:11:42;;;;;;;35.30;21.53;;;6.50;66.30;;;;;;4944179;29;20214;-96
2022/12/15 16:14:13;;;;;;;27.10;17.27;;;6.50;66.50;;;;;;4934885;29;20242;-96
2022/12/15 16:16:53;;;;;;;28.87;14.73;;;6.50;66.50;;;;;;4941914;29;20185;-95
2022/12/15 16:19:28;;;;;;;23.50;14.27;;;6.40;66.40;;;;;;4944515;29;20285;-96
2022/12/15 16:22:02;;;;;;;22.00;12.67;;;6.30;66.60;;;;;;4933294;29;20226;-95
2022/12/15 16:24:43;;;;;;;20.57;12.60;;;6.30;66.60;;;;;;4938023;29;20266;-95
2022/12/15 16:27:15;;;;;;;25.07;12.50;;;6.20;67.10;;;;;;4947555;29;20285;-96
2022/12/15 16:29:47;;;;;;;21.27;12.73;;;6.10;66.50;;;;;;4930951;29;20220;-96
2022/12/15 16:32:35;;;;;;;18.97;12.03;;;6.10;66.50;;;;;;4959387;29;20205;-95
